createdAt,value
2023-04-02T00:01:52.141Z,3.05
2023-04-02T00:04:23.151Z,3.10
2023-04-02T00:06:54.293Z,3.22
2023-04-02T00:09:28.596Z,2.90
2023-04-02T00:11:56.526Z,2.80
2023-04-02T00:14:25.838Z,2.90
2023-04-02T00:16:53.896Z,3.00
2023-04-02T00:19:26.434Z,2.83
2023-04-02T00:21:54.460Z,3.10
2023-04-02T00:24:22.845Z,3.15
2023-04-02T00:26:50.928Z,2.80
2023-04-02T00:29:18.930Z,2.90
2023-04-02T00:31:47.512Z,2.50
2023-04-02T00:34:19.376Z,2.75
2023-04-02T00:36:49.757Z,3.10
2023-04-02T00:39:20.679Z,2.97
2023-04-02T00:41:48.609Z,2.60
2023-04-02T00:44:21.527Z,2.97
2023-04-02T00:46:49.970Z,2.70
2023-04-02T00:49:24.709Z,2.88
2023-04-02T00:51:54.827Z,2.60
2023-04-02T00:54:25.813Z,3.20
2023-04-02T00:56:55.279Z,2.97
2023-04-02T00:59:26.578Z,2.72
2023-04-02T01:01:55.243Z,2.67
2023-04-02T01:04:32.504Z,2.78
2023-04-02T01:07:04.975Z,2.67
2023-04-02T01:09:40.629Z,2.40
2023-04-02T01:12:21.199Z,2.50
2023-04-02T01:14:53.181Z,2.53
2023-04-02T01:17:31.924Z,2.80
2023-04-02T01:20:14.030Z,2.53
2023-04-02T01:22:47.956Z,2.63
2023-04-02T01:25:17.753Z,2.53
2023-04-02T01:27:47.386Z,2.60
2023-04-02T01:30:16.840Z,2.80
2023-04-02T01:32:44.801Z,2.70
2023-04-02T01:35:13.358Z,2.50
2023-04-02T01:37:44.904Z,2.35
2023-04-02T01:40:23.720Z,2.50
2023-04-02T01:42:55.128Z,2.70
2023-04-02T01:45:24.988Z,2.50
2023-04-02T01:47:53.332Z,2.50
2023-04-02T01:50:31.380Z,2.53
2023-04-02T01:53:00.922Z,2.53
2023-04-02T01:55:34.690Z,2.55
2023-04-02T01:58:03.841Z,2.58
2023-04-02T02:00:33.284Z,2.22
2023-04-02T02:03:01.524Z,2.45
2023-04-02T02:05:30.183Z,2.55
2023-04-02T02:07:58.606Z,2.20
2023-04-02T02:10:27.910Z,2.28
2023-04-02T02:12:56.378Z,2.35
2023-04-02T02:15:24.687Z,2.38
2023-04-02T02:17:55.349Z,2.55
2023-04-02T02:20:23.243Z,2.42
2023-04-02T02:22:51.567Z,2.30
2023-04-02T02:25:20.795Z,2.20
2023-04-02T02:27:56.776Z,2.20
2023-04-02T02:30:27.403Z,2.40
2023-04-02T02:33:01.031Z,2.13
2023-04-02T02:35:30.599Z,2.15
2023-04-02T02:38:06.612Z,2.35
2023-04-02T02:40:37.873Z,2.50
2023-04-02T02:43:06.240Z,2.10
2023-04-02T02:45:37.756Z,2.40
2023-04-02T02:48:10.800Z,2.30
2023-04-02T02:50:38.788Z,2.40
2023-04-02T02:53:17.040Z,2.35
2023-04-02T02:55:44.976Z,1.88
2023-04-02T02:58:23.267Z,2.20
2023-04-02T03:01:02.079Z,2.17
2023-04-02T03:03:32.821Z,1.98
2023-04-02T03:06:05.304Z,2.10
2023-04-02T03:08:36.488Z,2.10
2023-04-02T03:11:07.957Z,2.28
2023-04-02T03:13:36.401Z,2.28
2023-04-02T03:16:09.228Z,2.13
2023-04-02T03:18:42.047Z,2.00
2023-04-02T03:21:16.275Z,2.20
2023-04-02T03:23:45.404Z,1.90
2023-04-02T03:26:15.449Z,1.90
2023-04-02T03:28:47.331Z,2.03
2023-04-02T03:31:17.097Z,2.00
2023-04-02T03:33:47.236Z,1.92
2023-04-02T03:36:19.723Z,2.00
2023-04-02T03:38:51.962Z,2.15
2023-04-02T03:41:30.281Z,2.10
2023-04-02T03:44:00.107Z,1.98
2023-04-02T03:46:30.342Z,2.10
2023-04-02T03:49:01.303Z,1.95
2023-04-02T03:51:32.470Z,1.90
2023-04-02T03:54:01.712Z,1.90
2023-04-02T03:56:31.606Z,2.30
2023-04-02T03:59:06.369Z,1.95
2023-04-02T04:01:36.042Z,2.00
2023-04-02T04:04:07.182Z,2.28
2023-04-02T04:06:35.233Z,1.90
2023-04-02T04:09:08.744Z,1.90
2023-04-02T04:11:37.556Z,2.20
2023-04-02T04:14:09.756Z,2.03
2023-04-02T04:16:42.898Z,2.05
2023-04-02T04:19:18.122Z,2.10
2023-04-02T04:21:47.085Z,2.10
2023-04-02T04:24:23.405Z,1.90
2023-04-02T04:26:57.972Z,2.00
2023-04-02T04:29:34.478Z,2.17
2023-04-02T04:32:13.135Z,2.30
2023-04-02T04:34:46.799Z,1.88
2023-04-02T04:37:21.493Z,2.10
2023-04-02T04:39:51.801Z,1.90
2023-04-02T04:42:21.621Z,1.90
2023-04-02T04:44:52.818Z,2.00
2023-04-02T04:47:21.981Z,2.10
2023-04-02T04:49:53.572Z,2.00
2023-04-02T04:52:22.390Z,2.03
2023-04-02T04:54:51.316Z,1.92
2023-04-02T04:57:31.123Z,2.20
2023-04-02T05:00:02.173Z,2.00
2023-04-02T05:02:33.389Z,1.98
2023-04-02T05:05:03.245Z,2.05
2023-04-02T05:07:32.456Z,2.08
2023-04-02T05:10:01.784Z,2.40
2023-04-02T05:12:36.510Z,2.25
2023-04-02T05:15:13.813Z,2.30
2023-04-02T05:17:44.939Z,2.20
2023-04-02T05:20:16.374Z,2.13
2023-04-02T05:22:49.990Z,1.80
2023-04-02T05:25:21.661Z,2.08
2023-04-02T05:27:52.585Z,2.47
2023-04-02T05:30:46.644Z,2.10
2023-04-02T05:33:21.087Z,2.40
2023-04-02T05:35:54.088Z,2.10
2023-04-02T05:38:23.904Z,2.25
2023-04-02T05:40:52.744Z,2.42
2023-04-02T05:43:21.683Z,2.20
2023-04-02T05:45:54.033Z,2.50
2023-04-02T05:48:23.929Z,2.40
2023-04-02T05:50:55.392Z,2.33
2023-04-02T05:53:29.647Z,2.20
2023-04-02T05:55:59.340Z,2.00
2023-04-02T05:58:36.381Z,2.28
2023-04-02T06:01:22.507Z,2.20
2023-04-02T06:03:56.628Z,2.53
2023-04-02T06:06:44.013Z,2.10
2023-04-02T06:09:16.405Z,2.08
2023-04-02T06:11:45.788Z,2.28
2023-04-02T06:14:17.561Z,2.25
2023-04-02T06:16:46.823Z,2.20
2023-04-02T06:19:17.598Z,2.00
2023-04-02T06:21:49.642Z,2.00
2023-04-02T06:24:21.140Z,2.15
2023-04-02T06:26:50.939Z,2.30
2023-04-02T06:29:21.024Z,2.10
2023-04-02T06:31:51.696Z,2.10
2023-04-02T06:34:22.182Z,2.22
2023-04-02T06:37:24.677Z,2.17
2023-04-02T06:39:59.120Z,2.03
2023-04-02T06:42:28.343Z,2.10
2023-04-02T06:45:17.718Z,2.15
2023-04-02T06:47:54.472Z,1.70
2023-04-02T06:50:31.375Z,2.00
2023-04-02T06:53:05.132Z,1.95
2023-04-02T06:55:48.573Z,2.00
2023-04-02T06:58:21.497Z,2.17
2023-04-02T07:00:50.401Z,2.13
2023-04-02T07:03:29.722Z,1.98
2023-04-02T07:06:01.086Z,2.17
2023-04-02T07:08:30.651Z,2.05
2023-04-02T07:10:58.731Z,1.92
2023-04-02T07:13:27.308Z,2.30
2023-04-02T07:15:55.714Z,2.05
2023-04-02T07:18:25.483Z,2.20
2023-04-02T07:20:53.882Z,2.20
2023-04-02T07:23:22.174Z,2.00
2023-04-02T07:25:51.629Z,1.95
2023-04-02T07:28:21.353Z,1.88
2023-04-02T07:30:50.591Z,2.00
2023-04-02T07:33:19.317Z,1.77
2023-04-02T07:35:47.624Z,1.80
2023-04-02T07:38:15.556Z,1.80
2023-04-02T07:40:43.445Z,2.00
2023-04-02T07:43:12.659Z,1.80
2023-04-02T07:45:40.806Z,1.90
2023-04-02T07:48:09.739Z,1.90
2023-04-02T07:50:37.629Z,1.90
2023-04-02T07:53:07.009Z,2.13
2023-04-02T07:55:35.017Z,1.85
2023-04-02T07:58:03.064Z,1.92
2023-04-02T08:00:32.317Z,1.90
2023-04-02T08:03:00.428Z,1.88
2023-04-02T08:05:28.363Z,2.08
2023-04-02T08:07:56.837Z,2.20
2023-04-02T08:10:25.023Z,1.92
2023-04-02T08:12:52.921Z,1.98
2023-04-02T08:15:20.796Z,1.83
2023-04-02T08:17:50.389Z,1.98
2023-04-02T08:20:19.244Z,1.80
2023-04-02T08:22:47.203Z,2.00
2023-04-02T08:25:15.384Z,2.30
2023-04-02T08:27:43.407Z,2.08
2023-04-02T08:30:13.554Z,2.10
2023-04-02T08:32:41.917Z,1.73
2023-04-02T08:35:12.277Z,1.98
2023-04-02T08:37:40.507Z,1.85
2023-04-02T08:40:10.102Z,2.00
2023-04-02T08:42:40.385Z,1.85
2023-04-02T08:45:24.185Z,1.80
2023-04-02T08:47:53.475Z,1.98
2023-04-02T08:50:27.857Z,2.75
2023-04-02T08:52:56.084Z,6.95
2023-04-02T08:55:29.872Z,16.30
2023-04-02T08:58:00.556Z,14.82
2023-04-02T09:00:37.921Z,13.75
2023-04-02T09:03:09.552Z,11.90
2023-04-02T09:05:40.980Z,11.63
2023-04-02T09:08:16.151Z,11.15
2023-04-02T09:10:46.386Z,9.95
2023-04-02T09:13:17.777Z,9.60
2023-04-02T09:15:45.840Z,10.43
2023-04-02T09:18:15.430Z,10.05
2023-04-02T09:20:44.857Z,9.05
2023-04-02T09:23:15.051Z,8.93
2023-04-02T09:25:54.122Z,8.77
2023-04-02T09:28:29.272Z,8.65
2023-04-02T09:31:03.880Z,7.63
2023-04-02T09:33:43.999Z,8.05
2023-04-02T09:36:34.141Z,8.63
2023-04-02T09:39:06.555Z,7.65
2023-04-02T09:41:36.669Z,7.30
2023-04-02T09:44:22.292Z,7.28
2023-04-02T09:46:54.704Z,6.45
2023-04-02T09:49:26.700Z,6.82
2023-04-02T09:52:24.120Z,7.15
2023-04-02T09:55:18.703Z,6.95
2023-04-02T09:57:47.115Z,6.10
2023-04-02T10:00:39.572Z,7.13
2023-04-02T10:03:08.614Z,6.30
2023-04-02T10:05:41.143Z,6.32
2023-04-02T10:08:19.973Z,6.22
2023-04-02T10:10:49.255Z,6.68
2023-04-02T10:13:20.304Z,5.60
2023-04-02T10:15:49.792Z,6.38
2023-04-02T10:18:21.880Z,10.65
2023-04-02T10:20:51.518Z,12.70
2023-04-02T10:23:21.618Z,18.27
2023-04-02T10:25:53.665Z,18.35
2023-04-02T10:28:27.685Z,18.05
2023-04-02T10:30:58.290Z,17.75
2023-04-02T10:33:28.529Z,18.50
2023-04-02T10:35:59.127Z,18.02
2023-04-02T10:38:32.208Z,16.27
2023-04-02T10:41:00.817Z,18.13
2023-04-02T10:43:48.756Z,15.10
2023-04-02T10:46:22.359Z,12.63
2023-04-02T10:48:55.317Z,13.82
2023-04-02T10:51:29.849Z,13.73
2023-04-02T10:54:02.194Z,12.32
2023-04-02T10:56:37.739Z,12.45
2023-04-02T10:59:14.913Z,13.02
2023-04-02T11:01:43.258Z,11.60
2023-04-02T11:04:17.305Z,12.55
2023-04-02T11:06:45.930Z,10.80
2023-04-02T11:09:18.021Z,9.25
2023-04-02T11:11:46.486Z,10.00
2023-04-02T11:14:15.854Z,8.32
2023-04-02T11:16:44.805Z,8.57
2023-04-02T11:19:24.334Z,8.20
2023-04-02T11:21:59.438Z,8.68
2023-04-02T11:24:39.770Z,7.82
2023-04-02T11:27:22.292Z,8.25
2023-04-02T11:29:51.004Z,8.68
2023-04-02T11:32:37.059Z,8.32
2023-04-02T11:35:37.131Z,8.15
2023-04-02T11:38:42.125Z,8.48
2023-04-02T11:41:11.414Z,8.35
2023-04-02T11:43:52.916Z,7.53
2023-04-02T11:46:45.456Z,7.95
2023-04-02T11:49:41.877Z,7.40
2023-04-02T11:52:28.784Z,7.55
2023-04-02T11:55:04.739Z,7.55
2023-04-02T11:57:52.814Z,7.47
2023-04-02T12:00:26.247Z,7.78
2023-04-02T12:03:03.460Z,7.20
2023-04-02T12:05:36.509Z,6.85
2023-04-02T12:08:17.420Z,7.10
2023-04-02T12:10:55.620Z,6.53
2023-04-02T12:13:53.652Z,6.35
2023-04-02T12:16:21.852Z,6.25
2023-04-02T12:18:53.878Z,6.25
2023-04-02T12:21:23.042Z,6.28
2023-04-02T12:23:52.352Z,6.22
2023-04-02T12:26:30.120Z,5.50
2023-04-02T12:29:25.083Z,5.70
2023-04-02T12:31:53.225Z,5.50
2023-04-02T12:34:22.218Z,6.07
2023-04-02T12:36:57.486Z,6.15
2023-04-02T12:39:28.095Z,5.60
2023-04-02T12:41:56.869Z,5.38
2023-04-02T12:44:27.141Z,5.43
2023-04-02T12:46:55.070Z,5.60
2023-04-02T12:49:28.078Z,5.40
2023-04-02T12:51:56.104Z,5.82
2023-04-02T12:54:24.031Z,5.50
2023-04-02T12:56:52.002Z,5.40
2023-04-02T12:59:29.802Z,5.38
2023-04-02T13:01:58.908Z,5.15
2023-04-02T13:04:26.936Z,4.78
2023-04-02T13:06:56.193Z,5.30
2023-04-02T13:09:32.425Z,5.10
2023-04-02T13:12:00.430Z,4.90
2023-04-02T13:14:29.675Z,5.03
2023-04-02T13:16:57.582Z,5.15
2023-04-02T13:19:30.467Z,5.05
2023-04-02T13:21:59.052Z,4.90
2023-04-02T13:24:27.662Z,4.80
2023-04-02T13:26:56.392Z,4.57
2023-04-02T13:29:25.962Z,4.40
2023-04-02T13:31:56.262Z,4.80
2023-04-02T13:34:24.232Z,4.53
2023-04-02T13:36:52.208Z,4.38
2023-04-02T13:39:20.521Z,4.90
2023-04-02T13:41:49.402Z,4.50
2023-04-02T13:44:22.266Z,3.95
2023-04-02T13:46:50.531Z,4.25
2023-04-02T13:49:19.734Z,4.30
2023-04-02T13:51:48.225Z,4.50
2023-04-02T13:54:21.724Z,4.40
2023-04-02T13:56:49.616Z,4.05
2023-04-02T13:59:17.567Z,3.88
2023-04-02T14:01:46.300Z,4.47
2023-04-02T14:04:16.536Z,4.00
2023-04-02T14:07:00.127Z,4.35
2023-04-02T14:09:30.352Z,4.07
2023-04-02T14:12:01.560Z,4.22
2023-04-02T14:14:43.180Z,3.78
2023-04-02T14:17:15.933Z,4.30
2023-04-02T14:19:52.608Z,3.25
2023-04-02T14:22:27.748Z,3.97
2023-04-02T14:24:58.546Z,3.85
2023-04-02T14:27:31.245Z,3.70
2023-04-02T14:30:02.005Z,3.65
2023-04-02T14:32:32.991Z,4.03
2023-04-02T14:35:03.608Z,3.83
2023-04-02T14:37:35.167Z,4.28
2023-04-02T14:40:08.081Z,3.97
2023-04-02T14:42:38.550Z,3.60
2023-04-02T14:45:07.886Z,3.63
2023-04-02T14:47:38.211Z,4.07
2023-04-02T14:50:10.440Z,3.50
2023-04-02T14:52:39.695Z,3.90
2023-04-02T14:55:09.767Z,3.40
2023-04-02T14:57:38.571Z,3.70
2023-04-02T15:00:08.238Z,3.50
2023-04-02T15:02:40.274Z,3.55
2023-04-02T15:05:15.551Z,4.07
2023-04-02T15:07:46.270Z,3.65
2023-04-02T15:10:18.682Z,3.30
2023-04-02T15:12:46.612Z,3.58
2023-04-02T15:15:26.860Z,3.50
2023-04-02T15:18:02.172Z,3.25
2023-04-02T15:20:35.465Z,3.58
2023-04-02T15:23:07.047Z,3.33
2023-04-02T15:25:37.717Z,3.67
2023-04-02T15:28:11.862Z,3.58
2023-04-02T15:30:41.598Z,3.38
2023-04-02T15:33:43.375Z,3.80
2023-04-02T15:36:38.140Z,3.47
2023-04-02T15:39:20.102Z,3.65
2023-04-02T15:41:54.078Z,3.67
2023-04-02T15:44:22.054Z,3.38
2023-04-02T15:46:52.963Z,3.38
2023-04-02T15:49:30.433Z,3.40
2023-04-02T15:52:02.819Z,3.60
2023-04-02T15:54:44.640Z,3.53
2023-04-02T15:57:19.896Z,3.33
2023-04-02T16:00:00.676Z,3.38
2023-04-02T16:02:39.443Z,3.20
2023-04-02T16:05:10.437Z,3.15
2023-04-02T16:08:02.364Z,3.30
2023-04-02T16:10:41.753Z,2.90
2023-04-02T16:13:16.135Z,3.05
2023-04-02T16:15:46.085Z,2.88
2023-04-02T16:18:17.123Z,3.35
2023-04-02T16:20:45.684Z,3.15
2023-04-02T16:23:14.996Z,4.15
2023-04-02T16:25:48.315Z,3.50
2023-04-02T16:28:19.157Z,4.10
2023-04-02T16:30:51.153Z,3.20
2023-04-02T16:33:29.296Z,3.38
2023-04-02T16:36:03.551Z,3.78
2023-04-02T16:38:41.153Z,3.53
2023-04-02T16:41:15.420Z,3.60
2023-04-02T16:43:48.430Z,2.90
2023-04-02T16:46:28.339Z,3.63
2023-04-02T16:49:08.316Z,3.15
2023-04-02T16:51:39.627Z,3.55
2023-04-02T16:54:11.369Z,3.03
2023-04-02T16:56:49.613Z,2.90
2023-04-02T16:59:20.950Z,2.88
2023-04-02T17:01:53.939Z,3.30
2023-04-02T17:04:47.448Z,3.30
2023-04-02T17:07:22.974Z,3.13
2023-04-02T17:09:51.601Z,3.25
2023-04-02T17:12:22.990Z,3.25
2023-04-02T17:14:52.995Z,3.60
2023-04-02T17:17:21.090Z,2.90
2023-04-02T17:19:49.210Z,3.08
2023-04-02T17:22:18.775Z,3.40
2023-04-02T17:24:48.691Z,3.30
2023-04-02T17:27:19.952Z,3.20
2023-04-02T17:29:50.148Z,3.17
2023-04-02T17:32:21.696Z,3.33
2023-04-02T17:34:49.622Z,3.13
2023-04-02T17:37:23.773Z,3.55
2023-04-02T17:39:55.346Z,3.08
2023-04-02T17:42:26.395Z,3.20
2023-04-02T17:45:00.455Z,3.28
2023-04-02T17:47:30.926Z,3.33
2023-04-02T17:50:11.838Z,3.00
2023-04-02T17:52:41.000Z,3.30
2023-04-02T17:55:14.436Z,3.60
2023-04-02T17:57:48.476Z,3.28
2023-04-02T18:00:39.475Z,3.30
2023-04-02T18:03:18.157Z,3.17
2023-04-02T18:05:46.877Z,3.15
2023-04-02T18:08:22.448Z,3.22
2023-04-02T18:10:57.228Z,3.50
2023-04-02T18:13:29.354Z,3.28
2023-04-02T18:16:21.287Z,3.10
2023-04-02T18:19:05.983Z,3.63
2023-04-02T18:21:37.371Z,3.00
2023-04-02T18:24:34.472Z,3.28
2023-04-02T18:27:18.444Z,3.25
2023-04-02T18:29:48.573Z,3.30
2023-04-02T18:32:41.530Z,3.38
2023-04-02T18:35:14.669Z,3.00
2023-04-02T18:37:48.259Z,2.95
2023-04-02T18:40:27.072Z,3.33
2023-04-02T18:43:01.350Z,3.35
2023-04-02T18:45:33.659Z,3.10
2023-04-02T18:48:06.733Z,3.30
2023-04-02T18:50:36.430Z,3.22
2023-04-02T18:53:11.365Z,3.47
2023-04-02T18:55:40.132Z,3.58
2023-04-02T18:58:11.919Z,3.67
2023-04-02T19:00:40.428Z,3.35
2023-04-02T19:03:12.626Z,3.30
2023-04-02T19:05:44.408Z,3.50
2023-04-02T19:08:15.554Z,3.58
2023-04-02T19:10:44.266Z,3.53
2023-04-02T19:13:14.492Z,3.30
2023-04-02T19:15:48.852Z,3.60
2023-04-02T19:18:20.955Z,3.63
2023-04-02T19:20:51.869Z,3.50
2023-04-02T19:23:29.724Z,3.55
2023-04-02T19:26:01.597Z,3.33
2023-04-02T19:28:32.388Z,3.70
2023-04-02T19:31:12.243Z,3.78
2023-04-02T19:33:48.223Z,3.67
2023-04-02T19:36:23.262Z,3.53
2023-04-02T19:38:58.400Z,3.70
2023-04-02T19:41:28.056Z,3.58
2023-04-02T19:43:56.034Z,3.63
2023-04-02T19:46:24.165Z,3.80
2023-04-02T19:48:57.287Z,3.80
2023-04-02T19:51:25.158Z,3.70
2023-04-02T19:53:53.091Z,4.20
2023-04-02T19:56:21.047Z,4.13
2023-04-02T19:58:48.888Z,3.95
2023-04-02T20:01:16.872Z,4.03
2023-04-02T20:03:44.859Z,5.70
2023-04-02T20:06:14.068Z,5.03
2023-04-02T20:08:42.009Z,4.93
2023-04-02T20:11:09.973Z,4.97
2023-04-02T20:13:37.860Z,5.28
2023-04-02T20:16:06.340Z,5.30
2023-04-02T20:18:34.786Z,5.53
2023-04-02T20:21:05.506Z,5.38
2023-04-02T20:23:35.158Z,4.68
2023-04-02T20:26:03.234Z,5.20
2023-04-02T20:28:31.251Z,5.47
2023-04-02T20:31:06.832Z,4.35
2023-04-02T20:33:34.823Z,4.82
2023-04-02T20:36:05.605Z,4.90
2023-04-02T20:38:35.087Z,4.95
2023-04-02T20:41:03.279Z,4.85
2023-04-02T20:43:31.391Z,4.72
2023-04-02T20:46:00.942Z,4.85
2023-04-02T20:48:30.641Z,5.13
2023-04-02T20:50:58.557Z,5.18
2023-04-02T20:53:26.641Z,5.00
2023-04-02T20:56:02.506Z,4.63
2023-04-02T20:58:30.377Z,4.82
2023-04-02T21:01:10.089Z,4.95
2023-04-02T21:03:39.767Z,4.68
2023-04-02T21:06:08.324Z,4.88
2023-04-02T21:08:37.015Z,4.75
2023-04-02T21:11:06.754Z,4.60
2023-04-02T21:13:36.104Z,5.25
2023-04-02T21:16:04.313Z,4.95
2023-04-02T21:18:33.547Z,4.80
2023-04-02T21:21:02.013Z,5.20
2023-04-02T21:23:30.116Z,5.20
2023-04-02T21:26:01.810Z,4.63
2023-04-02T21:28:31.176Z,4.93
2023-04-02T21:31:06.280Z,4.45
2023-04-02T21:33:36.824Z,4.55
2023-04-02T21:36:08.856Z,4.55
2023-04-02T21:38:38.175Z,4.35
2023-04-02T21:41:13.727Z,4.53
2023-04-02T21:43:42.996Z,4.40
2023-04-02T21:46:10.993Z,4.45
2023-04-02T21:48:40.566Z,4.75
2023-04-02T21:51:09.758Z,3.90
2023-04-02T21:53:37.644Z,4.15
2023-04-02T21:56:06.370Z,3.83
2023-04-02T21:58:34.304Z,3.90
2023-04-02T22:01:05.488Z,4.28
2023-04-02T22:03:35.296Z,3.72
2023-04-02T22:06:04.716Z,3.60
2023-04-02T22:08:32.691Z,4.00
2023-04-02T22:11:06.047Z,3.67
2023-04-02T22:13:34.003Z,3.78
2023-04-02T22:16:05.682Z,3.63
2023-04-02T22:18:35.011Z,3.53
2023-04-02T22:21:02.936Z,4.00
2023-04-02T22:23:30.899Z,3.58
2023-04-02T22:25:59.670Z,3.72
2023-04-02T22:28:27.904Z,3.22
2023-04-02T22:30:56.293Z,3.28
2023-04-02T22:33:25.634Z,3.22
2023-04-02T22:35:53.551Z,3.17
2023-04-02T22:38:21.468Z,3.08
2023-04-02T22:40:49.315Z,3.13
2023-04-02T22:43:17.711Z,3.55
2023-04-02T22:45:45.820Z,2.95
2023-04-02T22:48:13.752Z,3.10
2023-04-02T22:50:43.014Z,3.03
2023-04-02T22:53:15.162Z,2.88
2023-04-02T22:55:43.329Z,3.00
2023-04-02T22:58:11.200Z,2.95
2023-04-02T23:00:39.285Z,3.05
2023-04-02T23:03:07.165Z,2.78
2023-04-02T23:05:35.067Z,3.28
2023-04-02T23:08:04.305Z,2.80
2023-04-02T23:10:32.177Z,2.58
2023-04-02T23:13:00.013Z,2.97
2023-04-02T23:15:27.915Z,2.90
2023-04-02T23:17:55.899Z,2.83
2023-04-02T23:20:23.831Z,2.50
2023-04-02T23:22:51.709Z,2.60
2023-04-02T23:25:21.076Z,2.53
2023-04-02T23:27:48.956Z,2.35
2023-04-02T23:30:16.955Z,2.38
2023-04-02T23:32:44.863Z,2.40
2023-04-02T23:35:12.764Z,2.58
2023-04-02T23:37:41.932Z,2.45
2023-04-02T23:40:11.098Z,2.60
2023-04-02T23:42:40.429Z,2.17
2023-04-02T23:45:09.380Z,2.28
2023-04-02T23:47:37.337Z,2.50
2023-04-02T23:50:05.872Z,2.30
2023-04-02T23:52:33.771Z,2.10
2023-04-02T23:55:01.650Z,2.50
2023-04-02T23:57:29.576Z,2.10
2023-04-02T23:59:58.929Z,2.28
